createdAt,value
2023-03-12T00:00:15.531Z,4.98
2023-03-12T00:03:23.406Z,4.97
2023-03-12T00:06:26.317Z,4.92
2023-03-12T00:09:29.462Z,4.88
2023-03-12T00:12:32.338Z,4.84
2023-03-12T00:15:32.315Z,4.79
2023-03-12T00:18:33.423Z,4.73
2023-03-12T00:21:34.523Z,4.69
2023-03-12T00:24:40.338Z,4.62
2023-03-12T00:27:47.297Z,4.56
2023-03-12T00:30:53.562Z,4.53
2023-03-12T00:33:59.345Z,4.50
2023-03-12T00:36:59.603Z,4.46
2023-03-12T00:40:02.321Z,4.40
2023-03-12T00:43:04.413Z,4.32
2023-03-12T00:46:05.468Z,4.25
2023-03-12T00:49:05.376Z,4.20
2023-03-12T00:52:05.417Z,4.16
2023-03-12T00:55:05.367Z,4.14
2023-03-12T00:58:05.387Z,4.11
2023-03-12T01:01:06.030Z,4.11
2023-03-12T01:04:08.488Z,4.11
2023-03-12T01:07:10.420Z,4.07
2023-03-12T01:10:11.472Z,4.04
2023-03-12T01:13:12.437Z,4.01
2023-03-12T01:16:12.458Z,4.01
2023-03-12T01:19:13.401Z,3.98
2023-03-12T01:22:13.868Z,3.93
2023-03-12T01:25:13.505Z,3.88
2023-03-12T01:28:13.567Z,3.75
2023-03-12T01:31:20.537Z,3.63
2023-03-12T01:34:21.385Z,3.52
2023-03-12T01:37:21.474Z,3.40
2023-03-12T01:40:23.455Z,3.27
2023-03-12T01:43:44.453Z,3.18
2023-03-12T01:46:51.468Z,3.13
2023-03-12T01:49:52.477Z,3.11
2023-03-12T01:52:52.470Z,3.07
2023-03-12T01:55:53.507Z,3.00
2023-03-12T01:58:53.630Z,2.96
2023-03-12T02:01:54.632Z,2.83
2023-03-12T02:04:55.964Z,2.56
2023-03-12T02:07:58.637Z,2.41
2023-03-12T02:10:59.495Z,2.34
2023-03-12T02:14:00.502Z,2.27
2023-03-12T02:17:04.500Z,2.06
2023-03-12T02:20:41.551Z,1.89
2023-03-12T02:24:05.510Z,1.74
2023-03-12T02:27:05.565Z,1.66
2023-03-12T02:30:08.521Z,1.62
2023-03-12T02:33:12.761Z,1.59
2023-03-12T02:36:12.664Z,1.55
2023-03-12T02:39:12.531Z,1.51
2023-03-12T02:42:12.576Z,1.47
2023-03-12T02:45:13.567Z,1.45
2023-03-12T02:48:13.572Z,1.43
2023-03-12T02:51:14.687Z,1.37
2023-03-12T02:54:15.581Z,1.30
2023-03-12T02:57:16.603Z,1.23
2023-03-12T03:00:25.614Z,1.18
2023-03-12T03:03:26.589Z,1.14
2023-03-12T03:06:26.619Z,1.10
2023-03-12T03:09:29.621Z,1.04
2023-03-12T03:12:30.609Z,0.97
2023-03-12T03:15:39.794Z,0.88
2023-03-12T03:18:41.688Z,0.80
2023-03-12T03:21:41.631Z,0.73
2023-03-12T03:24:43.334Z,0.68
2023-03-12T03:27:44.818Z,0.62
2023-03-12T03:30:44.695Z,0.57
2023-03-12T03:33:49.873Z,0.53
2023-03-12T03:36:51.637Z,0.45
2023-03-12T03:39:53.656Z,0.39
2023-03-12T03:42:54.866Z,0.36
2023-03-12T03:45:55.700Z,0.34
2023-03-12T03:48:59.703Z,0.31
2023-03-12T03:52:00.162Z,0.29
2023-03-12T03:55:03.704Z,0.27
2023-03-12T03:58:04.791Z,0.22
2023-03-12T04:01:06.687Z,0.15
2023-03-12T04:04:08.717Z,0.12
2023-03-12T04:07:14.713Z,0.04
2023-03-12T04:10:14.732Z,-0.02
2023-03-12T04:13:15.765Z,-0.09
2023-03-12T04:16:20.767Z,-0.15
2023-03-12T04:19:21.853Z,-0.18
2023-03-12T04:22:17.798Z,-0.22
2023-03-12T04:25:20.747Z,-0.26
2023-03-12T04:28:21.725Z,-0.32
2023-03-12T04:31:26.172Z,-0.39
2023-03-12T04:34:20.759Z,-0.44
2023-03-12T04:37:20.786Z,-0.54
2023-03-12T04:40:24.798Z,-0.61
2023-03-12T04:43:26.720Z,-0.66
2023-03-12T04:46:26.804Z,-0.70
2023-03-12T04:49:27.795Z,-0.77
2023-03-12T04:52:29.001Z,-0.89
2023-03-12T04:55:29.787Z,-0.97
2023-03-12T04:58:29.847Z,-1.02
2023-03-12T05:01:41.805Z,-1.06
2023-03-12T05:04:45.779Z,-1.08
2023-03-12T05:07:46.797Z,-1.07
2023-03-12T05:10:51.834Z,-1.04
2023-03-12T05:13:54.830Z,-1.00
2023-03-12T05:16:54.860Z,-0.96
2023-03-12T05:19:58.905Z,-0.91
2023-03-12T05:23:00.850Z,-0.85
2023-03-12T05:26:02.907Z,-0.80
2023-03-12T05:29:03.846Z,-0.76
2023-03-12T05:32:06.837Z,-0.70
2023-03-12T05:35:06.834Z,-0.67
2023-03-12T05:38:08.921Z,-0.66
2023-03-12T05:41:10.884Z,-0.68
2023-03-12T05:44:14.961Z,-0.71
2023-03-12T05:47:19.864Z,-0.76
2023-03-12T05:50:21.896Z,-0.82
2023-03-12T05:53:23.961Z,-0.83
2023-03-12T05:56:27.915Z,-0.86
2023-03-12T05:59:31.152Z,-0.86
2023-03-12T06:02:33.038Z,-0.83
2023-03-12T06:05:35.186Z,-0.80
2023-03-12T06:08:38.979Z,-0.74
2023-03-12T06:11:38.905Z,-0.74
2023-03-12T06:14:41.998Z,-0.79
2023-03-12T06:17:43.374Z,-0.79
2023-03-12T06:20:45.118Z,-0.78
2023-03-12T06:23:45.958Z,-0.82
2023-03-12T06:26:50.961Z,-0.86
2023-03-12T06:29:59.518Z,-0.86
2023-03-12T06:33:00.114Z,-0.85
2023-03-12T06:36:03.126Z,-0.84
2023-03-12T06:39:06.352Z,-0.83
2023-03-12T06:42:07.100Z,-0.84
2023-03-12T06:45:09.029Z,-0.81
2023-03-12T06:48:13.986Z,-0.75
2023-03-12T06:51:16.008Z,-0.69
2023-03-12T06:54:18.980Z,-0.63
2023-03-12T06:57:26.025Z,-0.60
2023-03-12T07:00:27.980Z,-0.61
2023-03-12T07:03:33.341Z,-0.63
2023-03-12T07:06:46.624Z,-0.59
2023-03-12T07:09:48.042Z,-0.58
2023-03-12T07:12:57.026Z,-0.58
2023-03-12T07:16:00.129Z,-0.60
2023-03-12T07:19:05.115Z,-0.64
2023-03-12T07:22:10.426Z,-0.64
2023-03-12T07:25:18.963Z,-0.58
2023-03-12T07:28:21.030Z,-0.59
2023-03-12T07:31:22.175Z,-0.52
2023-03-12T07:34:29.165Z,-0.33
2023-03-12T07:37:31.065Z,-0.12
2023-03-12T07:40:37.118Z,0.02
2023-03-12T07:43:38.145Z,0.03
2023-03-12T07:46:39.382Z,0.07
2023-03-12T07:49:40.132Z,0.05
2023-03-12T07:52:40.313Z,0.02
2023-03-12T07:55:42.233Z,0.03
2023-03-12T07:58:45.265Z,0.12
2023-03-12T08:01:46.485Z,0.20
2023-03-12T08:04:51.242Z,0.27
2023-03-12T08:07:52.136Z,0.37
2023-03-12T08:10:54.658Z,0.47
2023-03-12T08:13:56.198Z,0.78
2023-03-12T08:16:59.300Z,1.29
2023-03-12T08:20:06.121Z,1.67
2023-03-12T08:23:06.147Z,1.83
2023-03-12T08:26:07.310Z,1.86
2023-03-12T08:29:08.143Z,1.82
2023-03-12T08:32:08.162Z,1.75
2023-03-12T08:35:14.419Z,1.54
2023-03-12T08:38:14.198Z,1.32
2023-03-12T08:41:15.147Z,1.17
2023-03-12T08:44:15.184Z,1.12
2023-03-12T08:47:15.287Z,1.17
2023-03-12T08:50:19.202Z,1.14
2023-03-12T08:53:21.721Z,1.10
2023-03-12T08:56:25.224Z,1.07
2023-03-12T08:59:28.281Z,1.08
2023-03-12T09:02:35.241Z,1.12
2023-03-12T09:05:37.053Z,1.18
2023-03-12T09:08:43.230Z,1.21
2023-03-12T09:11:45.973Z,1.39
2023-03-12T09:15:05.186Z,1.73
2023-03-12T09:18:06.221Z,2.07
2023-03-12T09:21:07.586Z,2.35
2023-03-12T09:24:08.313Z,2.66
2023-03-12T09:27:12.206Z,3.49
2023-03-12T09:30:23.314Z,4.57
2023-03-12T09:33:23.395Z,5.35
2023-03-12T09:36:24.221Z,5.55
2023-03-12T09:39:29.282Z,5.21
2023-03-12T09:42:40.422Z,4.93
2023-03-12T09:45:51.316Z,4.67
2023-03-12T09:48:57.346Z,4.42
2023-03-12T09:52:00.262Z,4.62
2023-03-12T09:55:12.416Z,4.82
2023-03-12T09:58:23.195Z,5.00
2023-03-12T10:01:25.547Z,5.34
2023-03-12T10:04:58.164Z,5.53
2023-03-12T10:08:25.101Z,5.15
2023-03-12T10:11:58.333Z,4.58
2023-03-12T10:15:08.362Z,4.50
2023-03-12T10:18:32.463Z,5.31
2023-03-12T10:21:48.315Z,6.21
2023-03-12T10:24:58.350Z,6.96
2023-03-12T10:28:00.342Z,6.71
2023-03-12T10:31:06.546Z,6.39
2023-03-12T10:34:11.364Z,6.01
2023-03-12T10:37:16.443Z,6.10
2023-03-12T10:40:19.142Z,6.29
2023-03-12T10:43:21.379Z,5.87
2023-03-12T10:46:52.472Z,5.51
2023-03-12T10:49:57.398Z,5.12
2023-03-12T10:52:59.348Z,4.95
2023-03-12T10:56:39.644Z,4.86
2023-03-12T10:59:42.401Z,4.87
2023-03-12T11:02:53.388Z,4.41
2023-03-12T11:06:05.421Z,3.83
2023-03-12T11:09:19.596Z,3.68
2023-03-12T11:12:42.557Z,3.61
2023-03-12T11:15:55.451Z,3.42
2023-03-12T11:19:17.807Z,3.73
2023-03-12T11:22:15.714Z,4.82
2023-03-12T11:25:17.660Z,5.31
2023-03-12T11:28:18.526Z,5.86
2023-03-12T11:31:28.597Z,6.75
2023-03-12T11:34:34.434Z,7.10
2023-03-12T11:37:55.670Z,6.51
2023-03-12T11:41:06.628Z,5.95
2023-03-12T11:44:25.477Z,5.64
2023-03-12T11:47:35.854Z,5.93
2023-03-12T11:51:08.485Z,6.66
2023-03-12T11:54:17.496Z,7.95
2023-03-12T11:57:39.481Z,8.27
2023-03-12T12:00:50.507Z,8.20
2023-03-12T12:04:19.581Z,7.94
2023-03-12T12:07:36.549Z,7.88
2023-03-12T12:10:54.493Z,7.37
2023-03-12T12:14:00.503Z,6.93
2023-03-12T12:17:15.521Z,6.63
2023-03-12T12:20:27.510Z,6.66
2023-03-12T12:23:30.565Z,6.34
2023-03-12T12:26:42.618Z,6.00
2023-03-12T12:30:04.604Z,6.05
2023-03-12T12:33:42.670Z,5.61
2023-03-12T12:36:48.230Z,4.72
2023-03-12T12:39:52.625Z,4.22
2023-03-12T12:43:02.614Z,3.90
2023-03-12T12:46:05.615Z,3.80
2023-03-12T12:49:06.629Z,3.81
2023-03-12T12:52:11.603Z,3.60
2023-03-12T12:55:23.644Z,3.36
2023-03-12T12:58:29.998Z,3.27
2023-03-12T13:01:32.774Z,3.15
2023-03-12T13:04:51.822Z,2.98
2023-03-12T13:07:53.665Z,2.78
2023-03-12T13:11:02.503Z,2.60
2023-03-12T13:14:17.756Z,2.44
2023-03-12T13:17:37.677Z,2.30
2023-03-12T13:20:46.344Z,2.21
2023-03-12T13:23:54.798Z,2.13
2023-03-12T13:27:22.349Z,2.07
2023-03-12T13:30:51.822Z,1.97
2023-03-12T13:34:00.517Z,1.87
2023-03-12T13:37:16.719Z,1.73
2023-03-12T13:40:43.813Z,1.64
2023-03-12T13:43:55.436Z,1.54
2023-03-12T13:46:57.773Z,1.47
2023-03-12T13:50:14.961Z,1.47
2023-03-12T13:53:20.770Z,1.48
2023-03-12T13:56:26.219Z,1.51
2023-03-12T13:59:35.488Z,1.54
2023-03-12T14:02:51.443Z,1.62
2023-03-12T14:06:08.714Z,1.77
2023-03-12T14:09:43.759Z,1.93
2023-03-12T14:13:00.877Z,2.24
2023-03-12T14:16:23.752Z,2.47
2023-03-12T14:19:25.756Z,2.49
2023-03-12T14:22:32.751Z,2.51
2023-03-12T14:25:56.941Z,2.48
2023-03-12T14:28:58.745Z,2.32
2023-03-12T14:31:58.768Z,2.19
2023-03-12T14:35:22.980Z,2.08
2023-03-12T14:38:33.762Z,1.95
2023-03-12T14:41:40.763Z,1.91
2023-03-12T14:44:45.305Z,1.80
2023-03-12T14:47:56.776Z,1.72
2023-03-12T14:50:56.887Z,1.66
2023-03-12T14:53:57.839Z,1.60
2023-03-12T14:56:59.190Z,1.53
2023-03-12T15:00:04.820Z,1.44
2023-03-12T15:03:07.830Z,1.32
2023-03-12T15:06:07.826Z,1.19
2023-03-12T15:09:09.851Z,0.93
2023-03-12T15:12:16.039Z,0.62
2023-03-12T15:15:43.949Z,0.14
2023-03-12T15:18:44.847Z,-0.26
2023-03-12T15:21:48.840Z,-0.39
2023-03-12T15:24:52.891Z,-0.45
2023-03-12T15:27:55.915Z,-0.50
2023-03-12T15:30:56.050Z,-0.52
2023-03-12T15:33:57.922Z,-0.54
2023-03-12T15:37:00.871Z,-0.53
2023-03-12T15:40:05.881Z,-0.51
2023-03-12T15:43:18.991Z,-0.46
2023-03-12T15:46:24.953Z,-0.41
2023-03-12T15:49:28.166Z,-0.38
2023-03-12T15:52:43.881Z,-0.34
2023-03-12T15:55:50.921Z,-0.26
2023-03-12T15:58:52.935Z,-0.18
2023-03-12T16:02:02.952Z,-0.13
2023-03-12T16:05:03.957Z,-0.12
2023-03-12T16:08:09.398Z,-0.12
2023-03-12T16:11:10.281Z,-0.09
2023-03-12T16:14:28.123Z,-0.05
2023-03-12T16:17:33.453Z,-0.03
2023-03-12T16:20:37.793Z,-0.05
2023-03-12T16:23:41.175Z,-0.07
2023-03-12T16:26:43.494Z,-0.12
2023-03-12T16:29:48.931Z,-0.13
2023-03-12T16:32:51.999Z,-0.07
2023-03-12T16:35:48.174Z,0.04
2023-03-12T16:38:49.980Z,0.14
2023-03-12T16:41:54.954Z,0.16
2023-03-12T16:44:56.985Z,-0.26
2023-03-12T16:47:59.036Z,-0.78
2023-03-12T16:51:01.993Z,-0.96
2023-03-12T16:54:11.424Z,-1.02
2023-03-12T16:57:12.103Z,-1.03
2023-03-12T17:00:14.032Z,-1.05
2023-03-12T17:03:13.986Z,-1.07
2023-03-12T17:06:15.032Z,-1.11
2023-03-12T17:09:15.992Z,-1.13
2023-03-12T17:12:48.234Z,-1.14
2023-03-12T17:15:53.114Z,-1.11
2023-03-12T17:18:57.130Z,-1.09
2023-03-12T17:21:59.552Z,-1.05
2023-03-12T17:25:02.008Z,-0.99
2023-03-12T17:28:07.090Z,-0.91
2023-03-12T17:31:12.124Z,-0.89
2023-03-12T17:34:13.039Z,-0.92
2023-03-12T17:37:15.054Z,-0.95
2023-03-12T17:40:16.063Z,-0.95
2023-03-12T17:43:18.531Z,-0.95
2023-03-12T17:46:21.332Z,-0.97
2023-03-12T17:49:23.266Z,-0.99
2023-03-12T17:52:24.156Z,-1.01
2023-03-12T17:55:26.183Z,-1.01
2023-03-12T17:58:27.206Z,-1.01
2023-03-12T18:01:27.158Z,-1.00
2023-03-12T18:04:29.321Z,-0.97
2023-03-12T18:07:32.164Z,-0.95
2023-03-12T18:10:33.254Z,-0.93
2023-03-12T18:13:38.872Z,-0.91
2023-03-12T18:16:41.274Z,-0.92
2023-03-12T18:19:44.190Z,-0.94
2023-03-12T18:22:44.249Z,-0.96
2023-03-12T18:25:44.112Z,-0.96
2023-03-12T18:28:46.350Z,-0.98
2023-03-12T18:31:47.156Z,-1.02
2023-03-12T18:34:50.376Z,-1.03
2023-03-12T18:37:52.181Z,-1.03
2023-03-12T18:40:53.585Z,-1.03
2023-03-12T18:43:53.182Z,-1.06
2023-03-12T18:46:56.238Z,-1.05
2023-03-12T18:49:59.904Z,-1.07
2023-03-12T18:53:05.173Z,-1.07
2023-03-12T18:56:06.195Z,-1.09
2023-03-12T18:59:07.348Z,-1.12
2023-03-12T19:02:07.385Z,-1.12
2023-03-12T19:05:08.580Z,-1.09
2023-03-12T19:08:08.691Z,-1.05
2023-03-12T19:11:12.256Z,-1.01
2023-03-12T19:14:12.243Z,-0.95
2023-03-12T19:17:16.291Z,-0.88
2023-03-12T19:20:16.246Z,-0.85
2023-03-12T19:23:22.262Z,-0.83
2023-03-12T19:26:24.265Z,-0.84
2023-03-12T19:29:25.661Z,-0.88
2023-03-12T19:32:33.345Z,-0.90
2023-03-12T19:35:43.410Z,-0.91
2023-03-12T19:38:44.260Z,-0.92
2023-03-12T19:41:46.269Z,-0.93
2023-03-12T19:44:49.336Z,-0.89
2023-03-12T19:47:52.430Z,-0.82
2023-03-12T19:50:57.276Z,-0.76
2023-03-12T19:54:05.549Z,-0.71
2023-03-12T19:57:07.372Z,-0.67
2023-03-12T20:00:14.317Z,-0.66
2023-03-12T20:03:14.486Z,-0.65
2023-03-12T20:06:15.314Z,-0.68
2023-03-12T20:09:15.338Z,-0.69
2023-03-12T20:12:24.371Z,-0.70
2023-03-12T20:15:24.327Z,-0.74
2023-03-12T20:18:26.434Z,-0.88
2023-03-12T20:21:29.591Z,-1.06
2023-03-12T20:24:31.362Z,-1.17
2023-03-12T20:27:33.624Z,-1.28
2023-03-12T20:30:34.949Z,-1.35
2023-03-12T20:33:39.657Z,-1.44
2023-03-12T20:36:44.385Z,-1.50
2023-03-12T20:39:44.417Z,-1.52
2023-03-12T20:42:48.678Z,-1.51
2023-03-12T20:45:51.402Z,-1.46
2023-03-12T20:48:56.823Z,-1.40
2023-03-12T20:51:57.852Z,-1.35
2023-03-12T20:54:59.376Z,-1.31
2023-03-12T20:58:00.572Z,-1.26
2023-03-12T21:01:02.675Z,-1.25
2023-03-12T21:04:11.425Z,-1.30
2023-03-12T21:07:16.436Z,-1.36
2023-03-12T21:10:16.412Z,-1.40
2023-03-12T21:13:18.687Z,-1.43
2023-03-12T21:16:20.584Z,-1.46
2023-03-12T21:19:20.455Z,-1.47
2023-03-12T21:22:21.653Z,-1.45
2023-03-12T21:25:22.564Z,-1.45
2023-03-12T21:28:24.519Z,-1.45
2023-03-12T21:31:30.405Z,-1.43
2023-03-12T21:34:30.667Z,-1.43
2023-03-12T21:37:30.534Z,-1.41
2023-03-12T21:40:30.678Z,-1.39
2023-03-12T21:43:30.613Z,-1.36
2023-03-12T21:46:33.724Z,-1.34
2023-03-12T21:49:33.550Z,-1.34
2023-03-12T21:52:34.565Z,-1.33
2023-03-12T21:55:34.539Z,-1.35
2023-03-12T21:58:44.574Z,-1.39
2023-03-12T22:01:44.688Z,-1.42
2023-03-12T22:04:45.652Z,-1.46
2023-03-12T22:07:49.607Z,-1.49
2023-03-12T22:10:51.652Z,-1.52
2023-03-12T22:13:54.921Z,-1.57
2023-03-12T22:16:58.726Z,-1.60
2023-03-12T22:20:12.569Z,-1.65
2023-03-12T22:23:12.595Z,-1.72
2023-03-12T22:26:15.590Z,-1.76
2023-03-12T22:29:19.589Z,-1.80
2023-03-12T22:32:19.615Z,-1.83
2023-03-12T22:35:21.604Z,-1.86
2023-03-12T22:38:22.983Z,-1.89
2023-03-12T22:41:31.667Z,-1.92
2023-03-12T22:44:32.646Z,-1.96
2023-03-12T22:47:38.650Z,-2.01
2023-03-12T22:50:39.708Z,-2.04
2023-03-12T22:53:42.662Z,-2.05
2023-03-12T22:56:43.481Z,-2.08
2023-03-12T22:59:44.763Z,-2.11
2023-03-12T23:02:44.698Z,-2.15
2023-03-12T23:05:44.661Z,-2.16
2023-03-12T23:08:47.077Z,-2.18
2023-03-12T23:11:47.807Z,-2.20
2023-03-12T23:14:49.937Z,-2.22
2023-03-12T23:17:55.713Z,-2.26
2023-03-12T23:20:55.729Z,-2.31
2023-03-12T23:23:55.702Z,-2.36
2023-03-12T23:26:56.669Z,-2.37
2023-03-12T23:29:57.750Z,-2.39
2023-03-12T23:32:59.852Z,-2.40
2023-03-12T23:36:15.921Z,-2.44
2023-03-12T23:39:15.703Z,-2.46
2023-03-12T23:42:16.905Z,-2.48
2023-03-12T23:45:16.772Z,-2.51
2023-03-12T23:48:17.869Z,-2.51
2023-03-12T23:51:26.771Z,-2.52
2023-03-12T23:54:27.772Z,-2.55
2023-03-12T23:57:28.786Z,-2.57
